createdAt,value
2019-03-03T00:01:14.039Z,99.90
2019-03-03T00:03:43.346Z,99.90
2019-03-03T00:06:12.754Z,99.90
2019-03-03T00:08:41.981Z,99.90
2019-03-03T00:11:11.216Z,99.90
2019-03-03T00:13:40.433Z,99.90
2019-03-03T00:16:09.752Z,99.90
2019-03-03T00:18:39.077Z,99.90
2019-03-03T00:21:08.340Z,99.90
2019-03-03T00:23:37.578Z,99.90
2019-03-03T00:26:06.799Z,99.90
2019-03-03T00:28:36.098Z,99.90
2019-03-03T00:31:05.303Z,99.90
2019-03-03T00:33:34.617Z,99.90
2019-03-03T00:36:03.827Z,99.90
2019-03-03T00:38:46.355Z,99.90
2019-03-03T00:41:34.600Z,99.90
2019-03-03T00:44:19.155Z,99.90
2019-03-03T00:47:07.364Z,99.90
2019-03-03T00:50:10.755Z,99.90
2019-03-03T00:52:54.343Z,99.90
2019-03-03T00:55:42.156Z,99.90
2019-03-03T00:58:33.384Z,99.90
2019-03-03T01:01:20.832Z,99.90
2019-03-03T01:04:18.159Z,99.90
2019-03-03T01:06:59.232Z,99.90
2019-03-03T01:09:47.389Z,99.90
2019-03-03T01:12:34.799Z,99.90
2019-03-03T01:15:11.985Z,99.90
2019-03-03T01:17:53.163Z,99.90
2019-03-03T01:20:31.165Z,99.90
2019-03-03T01:23:29.349Z,99.90
2019-03-03T01:25:58.528Z,99.90
2019-03-03T01:28:27.707Z,99.90
2019-03-03T01:30:57.001Z,99.90
2019-03-03T01:33:26.263Z,99.90
2019-03-03T01:35:55.545Z,99.90
2019-03-03T01:38:24.805Z,99.90
2019-03-03T01:40:54.353Z,99.90
2019-03-03T01:43:23.620Z,99.90
2019-03-03T01:45:53.040Z,99.90
2019-03-03T01:48:22.205Z,99.90
2019-03-03T01:50:51.451Z,99.90
2019-03-03T01:53:20.735Z,99.90
2019-03-03T01:55:50.029Z,99.90
2019-03-03T01:58:19.211Z,99.90
2019-03-03T02:00:48.381Z,99.90
2019-03-03T02:03:17.543Z,99.90
2019-03-03T02:05:46.835Z,99.90
2019-03-03T02:08:16.096Z,99.90
2019-03-03T02:10:45.536Z,99.90
2019-03-03T02:13:14.816Z,99.90
2019-03-03T02:15:44.158Z,99.90
2019-03-03T02:18:13.411Z,99.90
2019-03-03T02:20:42.636Z,99.90
2019-03-03T02:23:11.779Z,99.90
2019-03-03T02:25:40.921Z,99.90
2019-03-03T02:28:10.166Z,99.90
2019-03-03T02:30:39.347Z,99.90
2019-03-03T02:33:08.611Z,99.90
2019-03-03T02:35:37.830Z,99.90
2019-03-03T02:38:07.078Z,99.90
2019-03-03T02:40:36.295Z,99.90
2019-03-03T02:43:05.551Z,99.90
2019-03-03T02:45:34.806Z,99.90
2019-03-03T02:48:04.140Z,99.90
2019-03-03T02:50:33.502Z,99.90
2019-03-03T02:53:02.813Z,99.90
2019-03-03T02:55:32.088Z,99.90
2019-03-03T02:58:01.285Z,99.90
2019-03-03T03:00:30.521Z,99.90
2019-03-03T03:03:00.942Z,99.90
2019-03-03T03:05:45.116Z,99.90
2019-03-03T03:08:18.498Z,99.90
2019-03-03T03:11:22.132Z,99.90
2019-03-03T03:14:06.479Z,99.90
2019-03-03T03:16:54.175Z,99.90
2019-03-03T03:19:37.788Z,99.90
2019-03-03T03:22:35.103Z,99.90
2019-03-03T03:25:15.729Z,99.90
2019-03-03T03:28:02.338Z,99.90
2019-03-03T03:30:38.272Z,99.90
2019-03-03T03:33:15.810Z,99.90
2019-03-03T03:36:16.215Z,99.90
2019-03-03T03:39:00.991Z,99.90
2019-03-03T03:41:49.224Z,99.90
2019-03-03T03:44:37.498Z,99.90
2019-03-03T03:47:16.784Z,99.90
2019-03-03T03:49:54.852Z,99.90
2019-03-03T03:52:34.225Z,99.90
2019-03-03T03:55:37.657Z,99.90
2019-03-03T03:58:28.673Z,99.90
2019-03-03T04:01:22.715Z,99.90
2019-03-03T04:04:03.280Z,99.90
2019-03-03T04:06:50.159Z,99.90
2019-03-03T04:09:26.805Z,99.90
2019-03-03T04:12:23.885Z,99.90
2019-03-03T04:15:10.707Z,99.90
2019-03-03T04:17:48.861Z,99.90
2019-03-03T04:20:33.525Z,99.90
2019-03-03T04:23:31.062Z,99.90
2019-03-03T04:26:25.327Z,99.90
2019-03-03T04:29:25.853Z,99.90
2019-03-03T04:32:08.811Z,99.90
2019-03-03T04:34:48.331Z,99.90
2019-03-03T04:37:26.881Z,99.90
2019-03-03T04:40:15.125Z,99.90
2019-03-03T04:43:09.160Z,99.90
2019-03-03T04:45:45.727Z,99.90
2019-03-03T04:48:32.973Z,99.90
2019-03-03T04:51:23.965Z,99.90
2019-03-03T04:54:24.219Z,99.90
2019-03-03T04:56:59.735Z,99.90
2019-03-03T04:59:49.233Z,99.90
2019-03-03T05:02:25.279Z,99.90
2019-03-03T05:05:11.823Z,99.90
2019-03-03T05:08:05.883Z,99.90
2019-03-03T05:10:48.388Z,99.90
2019-03-03T05:13:22.513Z,99.90
2019-03-03T05:16:19.748Z,99.90
2019-03-03T05:19:14.075Z,99.90
2019-03-03T05:21:43.366Z,99.90
2019-03-03T05:24:12.519Z,99.90
2019-03-03T05:26:41.735Z,99.90
2019-03-03T05:29:10.954Z,99.90
2019-03-03T05:31:40.103Z,99.90
2019-03-03T05:34:09.273Z,99.90
2019-03-03T05:36:38.501Z,99.90
2019-03-03T05:39:07.873Z,99.90
2019-03-03T05:41:37.012Z,99.90
2019-03-03T05:44:06.243Z,99.90
2019-03-03T05:46:35.555Z,99.90
2019-03-03T05:49:04.691Z,99.90
2019-03-03T05:51:34.015Z,99.90
2019-03-03T05:54:03.296Z,99.90
2019-03-03T05:56:32.611Z,99.90
2019-03-03T05:59:01.913Z,99.90
2019-03-03T06:01:31.095Z,99.90
2019-03-03T06:04:00.263Z,99.90
2019-03-03T06:06:29.395Z,99.90
2019-03-03T06:08:58.561Z,99.90
2019-03-03T06:11:27.807Z,99.90
2019-03-03T06:13:56.994Z,99.90
2019-03-03T06:16:26.242Z,99.90
2019-03-03T06:18:55.536Z,99.90
2019-03-03T06:21:24.787Z,99.90
2019-03-03T06:23:54.100Z,99.90
2019-03-03T06:26:23.408Z,99.90
2019-03-03T06:28:52.706Z,99.90
2019-03-03T06:31:21.931Z,99.90
2019-03-03T06:33:51.099Z,99.90
2019-03-03T06:36:20.327Z,99.90
2019-03-03T06:38:49.482Z,99.90
2019-03-03T06:41:18.708Z,99.90
2019-03-03T06:43:47.872Z,99.90
2019-03-03T06:46:17.106Z,99.90
2019-03-03T06:48:46.287Z,99.90
2019-03-03T06:51:15.571Z,99.90
2019-03-03T06:53:44.831Z,99.90
2019-03-03T06:56:14.090Z,99.90
2019-03-03T06:58:43.283Z,99.90
2019-03-03T07:01:12.548Z,99.90
2019-03-03T07:03:41.784Z,99.90
2019-03-03T07:06:11.054Z,99.90
2019-03-03T07:08:40.283Z,99.90
2019-03-03T07:11:10.152Z,99.90
2019-03-03T07:13:39.874Z,99.90
2019-03-03T07:16:09.131Z,99.90
2019-03-03T07:18:38.366Z,99.90
2019-03-03T07:21:07.652Z,99.90
2019-03-03T07:23:36.827Z,99.90
2019-03-03T07:26:06.112Z,99.90
2019-03-03T07:28:35.387Z,99.90
2019-03-03T07:31:04.605Z,99.90
2019-03-03T07:33:35.732Z,99.90
2019-03-03T07:36:04.914Z,99.90
2019-03-03T07:38:34.173Z,99.90
2019-03-03T07:41:03.415Z,99.90
2019-03-03T07:43:32.579Z,99.90
2019-03-03T07:46:01.824Z,99.90
2019-03-03T07:48:31.072Z,99.90
2019-03-03T07:51:00.343Z,99.90
2019-03-03T07:53:29.551Z,99.90
2019-03-03T07:55:58.780Z,99.90
2019-03-03T07:58:28.070Z,99.90
2019-03-03T08:00:57.392Z,99.90
2019-03-03T08:03:26.755Z,99.90
2019-03-03T08:05:56.173Z,99.90
2019-03-03T08:08:25.500Z,99.90
2019-03-03T08:10:54.825Z,99.90
2019-03-03T08:13:24.222Z,99.90
2019-03-03T08:15:53.374Z,99.90
2019-03-03T08:18:22.556Z,99.90
2019-03-03T08:20:51.726Z,99.90
2019-03-03T08:23:21.953Z,99.90
2019-03-03T08:25:51.153Z,99.90
2019-03-03T08:28:20.390Z,99.90
2019-03-03T08:30:49.666Z,99.90
2019-03-03T08:33:18.929Z,99.90
2019-03-03T08:35:48.156Z,99.90
2019-03-03T08:38:17.590Z,99.90
2019-03-03T08:40:46.892Z,99.90
2019-03-03T08:43:35.096Z,99.90
2019-03-03T08:46:38.538Z,99.90
2019-03-03T08:49:19.226Z,99.90
2019-03-03T08:52:02.910Z,99.90
2019-03-03T08:54:58.441Z,99.90
2019-03-03T08:57:45.034Z,99.90
2019-03-03T09:00:27.490Z,99.90
2019-03-03T09:03:33.498Z,99.90
2019-03-03T09:06:24.512Z,99.90
2019-03-03T09:09:15.491Z,99.90
2019-03-03T09:12:18.968Z,99.90
2019-03-03T09:15:12.730Z,99.90
2019-03-03T09:18:06.782Z,99.90
2019-03-03T09:20:57.743Z,99.90
2019-03-03T09:24:04.410Z,99.90
2019-03-03T09:26:52.686Z,99.90
2019-03-03T09:29:43.188Z,99.90
2019-03-03T09:32:24.913Z,99.90
2019-03-03T09:35:14.420Z,99.90
2019-03-03T09:38:02.660Z,99.90
2019-03-03T09:40:38.265Z,99.90
2019-03-03T09:43:26.512Z,99.90
2019-03-03T09:46:13.842Z,99.90
2019-03-03T09:49:11.882Z,99.90
2019-03-03T09:52:00.120Z,99.90
2019-03-03T09:54:43.793Z,99.90
2019-03-03T09:57:34.244Z,99.90
2019-03-03T10:00:19.848Z,99.90
2019-03-03T10:03:06.072Z,99.90
2019-03-03T10:06:00.476Z,99.90
2019-03-03T10:08:45.222Z,99.90
2019-03-03T10:11:33.951Z,99.90
2019-03-03T10:14:20.970Z,99.40
2019-03-03T10:16:58.008Z,97.60
2019-03-03T10:19:58.588Z,97.10
2019-03-03T10:22:45.836Z,96.60
2019-03-03T10:25:28.410Z,96.30
2019-03-03T10:28:19.634Z,95.60
2019-03-03T10:30:58.563Z,95.50
2019-03-03T10:33:41.862Z,95.00
2019-03-03T10:36:28.998Z,94.70
2019-03-03T10:39:13.653Z,95.50
2019-03-03T10:42:00.862Z,96.40
2019-03-03T10:44:42.207Z,96.20
2019-03-03T10:47:17.384Z,95.10
2019-03-03T10:50:02.265Z,95.00
2019-03-03T10:53:00.698Z,94.80
2019-03-03T10:55:35.044Z,95.60
2019-03-03T10:58:16.937Z,95.60
2019-03-03T11:01:04.124Z,96.60
2019-03-03T11:03:47.514Z,96.60
2019-03-03T11:06:34.691Z,94.90
2019-03-03T11:09:19.916Z,94.60
2019-03-03T11:12:08.122Z,93.90
2019-03-03T11:14:49.228Z,93.80
2019-03-03T11:17:36.465Z,93.90
2019-03-03T11:20:12.796Z,94.00
2019-03-03T11:23:01.136Z,93.70
2019-03-03T11:25:52.526Z,95.60
2019-03-03T11:28:32.280Z,96.20
2019-03-03T11:31:14.150Z,96.10
2019-03-03T11:34:05.552Z,96.40
2019-03-03T11:36:38.706Z,96.40
2019-03-03T11:39:22.065Z,96.60
2019-03-03T11:42:00.242Z,96.70
2019-03-03T11:44:57.400Z,96.40
2019-03-03T11:47:44.645Z,96.90
2019-03-03T11:50:36.000Z,96.40
2019-03-03T11:53:43.159Z,95.40
2019-03-03T11:56:26.274Z,95.80
2019-03-03T11:59:26.508Z,96.90
2019-03-03T12:02:21.758Z,96.80
2019-03-03T12:05:03.721Z,95.80
2019-03-03T12:07:54.728Z,95.00
2019-03-03T12:10:43.436Z,94.90
2019-03-03T12:13:30.446Z,94.80
2019-03-03T12:16:21.757Z,94.40
2019-03-03T12:19:22.404Z,94.00
2019-03-03T12:22:07.188Z,93.90
2019-03-03T12:25:10.814Z,93.70
2019-03-03T12:27:57.813Z,94.90
2019-03-03T12:30:57.774Z,96.00
2019-03-03T12:33:46.442Z,96.20
2019-03-03T12:36:30.224Z,95.40
2019-03-03T12:39:09.147Z,95.70
2019-03-03T12:41:50.197Z,96.20
2019-03-03T12:44:38.506Z,96.60
2019-03-03T12:47:29.615Z,96.50
2019-03-03T12:50:17.982Z,97.20
2019-03-03T12:53:09.889Z,97.90
2019-03-03T12:56:10.574Z,98.30
2019-03-03T12:58:49.402Z,99.00
2019-03-03T13:01:31.972Z,99.90
2019-03-03T13:04:15.354Z,99.90
2019-03-03T13:07:02.261Z,99.90
2019-03-03T13:09:53.040Z,99.90
2019-03-03T13:12:53.205Z,99.90
2019-03-03T13:15:50.502Z,99.90
2019-03-03T13:18:44.560Z,99.90
2019-03-03T13:21:39.179Z,99.90
2019-03-03T13:24:26.345Z,99.90
2019-03-03T13:27:14.745Z,99.90
2019-03-03T13:30:12.044Z,99.90
2019-03-03T13:33:00.294Z,99.90
2019-03-03T13:35:54.432Z,99.90
2019-03-03T13:38:45.704Z,99.90
2019-03-03T13:41:24.274Z,99.90
2019-03-03T13:43:53.471Z,99.90
2019-03-03T13:46:22.907Z,99.90
2019-03-03T13:48:52.282Z,99.90
2019-03-03T13:51:21.619Z,99.90
2019-03-03T13:53:50.923Z,99.90
2019-03-03T13:56:20.404Z,99.90
2019-03-03T13:58:49.643Z,99.90
2019-03-03T14:01:20.223Z,99.90
2019-03-03T14:03:49.492Z,99.90
2019-03-03T14:06:18.748Z,99.90
2019-03-03T14:08:47.998Z,99.90
2019-03-03T14:11:26.885Z,99.90
2019-03-03T14:13:59.615Z,99.90
2019-03-03T14:16:28.872Z,99.90
2019-03-03T14:18:58.111Z,99.90
2019-03-03T14:21:28.673Z,99.90
2019-03-03T14:23:58.692Z,99.90
2019-03-03T14:26:29.730Z,99.90
2019-03-03T14:28:59.346Z,99.90
2019-03-03T14:31:28.608Z,99.90
2019-03-03T14:33:57.982Z,99.90
2019-03-03T14:36:27.170Z,99.90
2019-03-03T14:38:57.539Z,99.90
2019-03-03T14:41:26.817Z,99.90
2019-03-03T14:43:56.145Z,99.90
2019-03-03T14:46:26.006Z,99.90
2019-03-03T14:48:55.187Z,99.90
2019-03-03T14:51:24.409Z,99.90
2019-03-03T14:53:53.721Z,99.90
2019-03-03T14:56:23.015Z,99.90
2019-03-03T14:58:52.266Z,99.90
2019-03-03T15:01:21.525Z,99.90
2019-03-03T15:03:50.769Z,99.90
2019-03-03T15:06:24.414Z,99.90
2019-03-03T15:08:51.901Z,99.90
2019-03-03T15:11:21.476Z,99.90
2019-03-03T15:13:50.756Z,99.90
2019-03-03T15:16:20.694Z,99.90
2019-03-03T15:18:49.942Z,99.90
2019-03-03T15:21:25.121Z,99.90
2019-03-03T15:23:50.031Z,99.90
2019-03-03T15:26:19.311Z,99.90
2019-03-03T15:28:49.239Z,99.90
2019-03-03T15:31:18.546Z,99.90
2019-03-03T15:33:47.777Z,99.90
2019-03-03T15:36:17.048Z,99.90
2019-03-03T15:38:46.307Z,99.90
2019-03-03T15:41:15.609Z,99.90
2019-03-03T15:43:44.900Z,99.90
2019-03-03T15:46:14.080Z,99.90
2019-03-03T15:48:43.414Z,99.90
2019-03-03T15:51:12.763Z,99.90
2019-03-03T15:53:42.188Z,99.90
2019-03-03T15:56:11.479Z,99.90
2019-03-03T15:58:40.752Z,99.90
2019-03-03T16:01:15.075Z,99.90
2019-03-03T16:03:44.421Z,99.90
2019-03-03T16:06:13.834Z,99.90
2019-03-03T16:08:43.040Z,99.90
2019-03-03T16:11:12.377Z,99.90
2019-03-03T16:13:41.645Z,99.90
2019-03-03T16:16:11.326Z,99.90
2019-03-03T16:18:40.567Z,99.90
2019-03-03T16:21:09.832Z,99.90
2019-03-03T16:23:39.115Z,99.90
2019-03-03T16:26:08.289Z,99.90
2019-03-03T16:28:37.591Z,99.90
2019-03-03T16:31:06.872Z,99.90
2019-03-03T16:33:36.217Z,99.90
2019-03-03T16:36:05.629Z,99.90
2019-03-03T16:38:34.879Z,99.90
2019-03-03T16:41:04.097Z,99.90
2019-03-03T16:43:33.357Z,99.90
2019-03-03T16:46:02.726Z,99.90
2019-03-03T16:48:31.942Z,99.90
2019-03-03T16:51:01.129Z,99.90
2019-03-03T16:53:30.349Z,99.90
2019-03-03T16:55:59.609Z,99.90
2019-03-03T16:58:28.934Z,99.90
2019-03-03T17:00:58.150Z,99.90
2019-03-03T17:03:27.368Z,99.90
2019-03-03T17:05:56.593Z,99.90
2019-03-03T17:08:25.880Z,99.90
2019-03-03T17:10:55.259Z,99.90
2019-03-03T17:13:24.488Z,99.90
2019-03-03T17:15:53.683Z,99.90
2019-03-03T17:18:22.988Z,99.90
2019-03-03T17:20:52.302Z,99.90
2019-03-03T17:23:21.583Z,99.90
2019-03-03T17:25:50.731Z,99.90
2019-03-03T17:28:20.061Z,99.90
2019-03-03T17:30:49.361Z,99.90
2019-03-03T17:33:18.626Z,99.90
2019-03-03T17:35:47.855Z,99.90
2019-03-03T17:38:17.149Z,99.90
2019-03-03T17:40:46.416Z,99.90
2019-03-03T17:43:15.712Z,99.90
2019-03-03T17:45:45.030Z,99.90
2019-03-03T17:48:14.288Z,99.90
2019-03-03T17:50:43.661Z,99.90
2019-03-03T17:53:12.986Z,99.90
2019-03-03T17:55:42.264Z,99.90
2019-03-03T17:58:11.597Z,99.90
2019-03-03T18:00:43.215Z,99.90
2019-03-03T18:03:12.460Z,99.90
2019-03-03T18:05:41.826Z,99.90
2019-03-03T18:08:11.076Z,99.90
2019-03-03T18:10:40.415Z,99.90
2019-03-03T18:13:12.701Z,99.90
2019-03-03T18:15:41.946Z,99.90
2019-03-03T18:18:11.207Z,99.90
2019-03-03T18:20:40.568Z,99.90
2019-03-03T18:23:09.835Z,99.90
2019-03-03T18:25:39.125Z,99.90
2019-03-03T18:28:08.325Z,99.90
2019-03-03T18:30:48.821Z,99.90
2019-03-03T18:33:18.035Z,99.90
2019-03-03T18:35:47.235Z,99.90
2019-03-03T18:38:16.603Z,99.90
2019-03-03T18:40:45.961Z,99.90
2019-03-03T18:43:15.191Z,99.90
2019-03-03T18:45:44.397Z,99.90
2019-03-03T18:48:13.939Z,99.90
2019-03-03T18:50:43.340Z,99.90
2019-03-03T18:53:12.751Z,99.90
2019-03-03T18:55:42.137Z,99.90
2019-03-03T18:58:11.427Z,99.90
2019-03-03T19:00:40.687Z,99.90
2019-03-03T19:03:10.187Z,99.90
2019-03-03T19:05:39.389Z,99.90
2019-03-03T19:08:08.689Z,99.90
2019-03-03T19:10:37.938Z,99.90
2019-03-03T19:13:12.030Z,99.90
2019-03-03T19:15:40.899Z,99.90
2019-03-03T19:18:10.146Z,99.90
2019-03-03T19:20:39.276Z,99.90
2019-03-03T19:23:08.549Z,99.90
2019-03-03T19:25:37.897Z,99.90
2019-03-03T19:28:07.114Z,99.90
2019-03-03T19:30:36.480Z,99.90
2019-03-03T19:33:18.588Z,99.90
2019-03-03T19:35:47.910Z,99.90
2019-03-03T19:38:17.249Z,99.90
2019-03-03T19:40:46.606Z,99.90
2019-03-03T19:43:15.961Z,99.90
2019-03-03T19:45:45.291Z,99.90
2019-03-03T19:48:14.540Z,99.90
2019-03-03T19:50:43.861Z,99.90
2019-03-03T19:53:13.148Z,99.90
2019-03-03T19:55:42.551Z,99.90
2019-03-03T19:58:12.007Z,99.90
2019-03-03T20:00:41.343Z,99.90
2019-03-03T20:03:10.636Z,99.90
2019-03-03T20:05:40.088Z,99.90
2019-03-03T20:08:09.376Z,99.90
2019-03-03T20:10:38.777Z,99.90
2019-03-03T20:13:08.067Z,99.90
2019-03-03T20:15:37.485Z,99.90
2019-03-03T20:18:08.011Z,99.90
2019-03-03T20:20:37.325Z,99.90
2019-03-03T20:23:06.707Z,99.90
2019-03-03T20:25:36.027Z,99.90
2019-03-03T20:28:05.416Z,99.90
2019-03-03T20:30:34.705Z,99.90
2019-03-03T20:33:04.145Z,99.90
2019-03-03T20:35:33.409Z,99.90
2019-03-03T20:38:02.664Z,99.90
2019-03-03T20:40:31.877Z,99.90
2019-03-03T20:43:01.175Z,99.90
2019-03-03T20:45:30.548Z,99.90
2019-03-03T20:48:00.024Z,99.90
2019-03-03T20:50:29.191Z,99.90
2019-03-03T20:52:58.473Z,99.90
2019-03-03T20:55:27.659Z,99.90
2019-03-03T20:57:56.967Z,99.90
2019-03-03T21:00:26.805Z,99.90
2019-03-03T21:02:56.281Z,99.90
2019-03-03T21:05:25.569Z,99.90
2019-03-03T21:07:55.096Z,99.90
2019-03-03T21:10:24.359Z,99.90
2019-03-03T21:12:53.616Z,99.90
2019-03-03T21:15:22.922Z,99.90
2019-03-03T21:17:52.074Z,99.90
2019-03-03T21:20:21.553Z,99.90
2019-03-03T21:22:51.058Z,99.90
2019-03-03T21:25:20.372Z,99.90
2019-03-03T21:27:49.570Z,99.90
2019-03-03T21:30:20.979Z,99.90
2019-03-03T21:32:50.599Z,99.90
2019-03-03T21:35:19.875Z,99.90
2019-03-03T21:37:49.326Z,99.90
2019-03-03T21:40:18.958Z,99.90
2019-03-03T21:42:48.233Z,99.90
2019-03-03T21:45:18.970Z,99.90
2019-03-03T21:47:48.150Z,99.90
2019-03-03T21:50:19.918Z,99.90
2019-03-03T21:52:49.140Z,99.90
2019-03-03T21:55:18.382Z,99.90
2019-03-03T21:57:47.674Z,99.90
2019-03-03T22:00:26.850Z,99.90
2019-03-03T22:02:56.040Z,99.90
2019-03-03T22:05:25.512Z,99.90
2019-03-03T22:07:54.757Z,99.90
2019-03-03T22:10:30.512Z,99.90
2019-03-03T22:13:13.080Z,99.90
2019-03-03T22:15:42.483Z,99.90
2019-03-03T22:18:11.769Z,99.90
2019-03-03T22:20:41.110Z,99.90
2019-03-03T22:23:10.396Z,99.90
2019-03-03T22:25:39.586Z,99.90
2019-03-03T22:28:08.906Z,99.90
2019-03-03T22:30:38.103Z,99.90
2019-03-03T22:33:07.366Z,99.90
2019-03-03T22:35:36.660Z,99.90
2019-03-03T22:38:05.905Z,99.90
2019-03-03T22:40:35.057Z,99.90
2019-03-03T22:43:04.355Z,99.90
2019-03-03T22:45:33.528Z,99.90
2019-03-03T22:48:02.736Z,99.90
2019-03-03T22:50:32.014Z,99.90
2019-03-03T22:53:01.192Z,99.90
2019-03-03T22:55:35.421Z,99.90
2019-03-03T22:58:04.688Z,99.90
2019-03-03T23:00:50.190Z,99.90
2019-03-03T23:03:26.265Z,99.90
2019-03-03T23:06:27.062Z,99.90
2019-03-03T23:09:19.614Z,99.90
2019-03-03T23:11:54.591Z,99.90
2019-03-03T23:14:29.802Z,99.90
2019-03-03T23:17:46.014Z,99.90
2019-03-03T23:20:39.214Z,99.90
2019-03-03T23:23:47.522Z,99.90
2019-03-03T23:26:17.099Z,99.90
2019-03-03T23:28:46.406Z,99.90
2019-03-03T23:31:15.727Z,99.90
2019-03-03T23:33:44.937Z,99.90
2019-03-03T23:36:14.168Z,99.90
2019-03-03T23:38:43.497Z,99.90
2019-03-03T23:41:12.839Z,99.90
2019-03-03T23:43:42.078Z,99.90
2019-03-03T23:46:11.317Z,99.90
2019-03-03T23:48:40.578Z,99.90
2019-03-03T23:51:09.891Z,99.90
2019-03-03T23:53:39.184Z,99.90
2019-03-03T23:56:08.436Z,99.90
2019-03-03T23:58:37.617Z,99.90
